Time;durP1;ratioP1;P1;durP2;ratioP2;P2;SDS_P1;SDS_P2;PMS_P1;PMS_P2;Temp;Humidity;BMP_temperature;BMP_pressure;BME280_temperature;BME280_humidity;BME280_pressure;Samples;Min_cycle;Max_cycle;Signal;HPM_P1;HPM_P2
2023/07/08 00:02:13;;;;;;;4.38;4.18;;;;;;;24.23;100.00;152132.16;5071584;28;20200;-61
2023/07/08 00:04:40;;;;;;;4.10;4.00;;;;;;;24.05;100.00;152086.16;5071478;28;20192;-61
2023/07/08 00:07:12;;;;;;;4.20;4.00;;;;;;;24.02;100.00;152078.47;5071540;28;20195;-61
2023/07/08 00:09:39;;;;;;;4.30;4.20;;;;;;;24.01;100.00;152077.25;5071470;28;20238;-61
2023/07/08 00:12:11;;;;;;;4.88;4.50;;;;;;;23.88;100.00;152042.75;5071358;28;20209;-61
2023/07/08 00:14:37;;;;;;;4.80;4.50;;;;;;;23.90;100.00;152049.13;5071754;28;20189;-61
2023/07/08 00:17:10;;;;;;;4.10;4.00;;;;;;;23.78;100.00;140440.13;5071471;28;20184;-61
2023/07/08 00:19:37;;;;;;;6.15;4.15;;;;;;;23.79;100.00;132631.41;5071695;28;20188;-60
2023/07/08 00:22:11;;;;;;;4.50;4.30;;;;;;;23.69;100.00;125153.81;5071605;28;20184;-62
2023/07/08 00:24:38;;;;;;;4.22;4.03;;;;;;;23.68;100.00;116698.97;5071633;28;20212;-61
2023/07/08 00:27:09;;;;;;;4.78;4.38;;;;;;;23.65;100.00;112305.94;5071854;28;20192;-61
2023/07/08 00:29:38;;;;;;;4.53;4.32;;;;;;;23.67;100.00;112647.03;5071294;28;20272;-61
2023/07/08 00:32:11;;;;;;;4.40;4.20;;;;;;;23.58;100.00;109932.94;5071577;28;20574;-61
2023/07/08 00:34:38;;;;;;;5.60;4.25;;;;;;;23.56;100.00;103869.59;5071557;28;20562;-61
2023/07/08 00:37:05;;;;;;;4.30;4.13;;;;;;;23.52;100.00;94791.31;5071240;28;20184;-61
2023/07/08 00:39:32;;;;;;;4.70;4.30;;;;;;;23.48;100.00;89756.34;5071233;28;20181;-61
2023/07/08 00:42:01;;;;;;;4.68;4.28;;;;;;;23.36;100.00;84384.13;5071537;28;20185;-61
2023/07/08 00:44:29;;;;;;;4.70;4.40;;;;;;;23.26;100.00;83032.63;5071271;28;20228;-60
2023/07/08 00:47:03;;;;;;;5.35;4.95;;;;;;;23.40;100.00;81714.69;5072225;28;20192;-60
2023/07/08 00:49:37;;;;;;;5.10;4.68;;;;;;;23.18;100.00;76678.41;5075424;28;20258;-61
2023/07/08 00:52:25;;;;;;;5.03;4.82;;;;;;;23.29;100.00;75023.72;5075319;28;20204;-61
2023/07/08 00:54:54;;;;;;;6.80;4.85;;;;;;;23.32;100.00;76696.00;5075297;28;20184;-61
2023/07/08 00:57:23;;;;;;;4.88;4.68;;;;;;;23.37;100.00;78370.63;5074946;28;20196;-61
2023/07/08 00:59:57;;;;;;;4.80;4.50;;;;;;;23.36;100.00;78369.97;5075099;28;20566;-63
2023/07/08 01:02:27;;;;;;;4.60;4.40;;;;;;;23.27;100.00;76355.88;5075075;28;20627;-60
2023/07/08 01:04:59;;;;;;;5.38;4.97;;;;;;;23.16;100.00;74341.69;5074493;28;20597;-61
2023/07/08 01:07:27;;;;;;;4.55;4.35;;;;;;;23.10;100.00;68007.25;5074713;28;20208;-61
2023/07/08 01:10:02;;;;;;;4.90;4.50;;;;;;;23.05;100.00;66671.09;5075007;28;20536;-60
2023/07/08 01:12:33;;;;;;;6.00;5.20;;;;;;;23.04;100.00;65007.75;5074919;28;20710;-61
2023/07/08 01:15:03;;;;;;;4.40;4.18;;;;;;;22.86;100.00;64655.50;5074552;28;20184;-61
2023/07/08 01:17:32;;;;;;;4.60;4.40;;;;;;;22.93;100.00;62337.63;5074675;28;20191;-61
2023/07/08 01:20:00;;;;;;;4.80;4.60;;;;;;;22.97;100.00;64999.97;5074604;28;20267;-61
2023/07/08 01:22:32;;;;;;;4.30;4.13;;;;;;;;;;5074817;28;20249;-61
2023/07/08 01:25:03;;;;;;;4.68;4.47;;;;;;;22.91;100.00;67319.53;5074752;28;20374;-61
2023/07/08 01:27:32;;;;;;;4.70;4.50;;;;;;;22.84;100.00;69972.91;5074661;28;20204;-61
2023/07/08 01:29:59;;;;;;;4.95;4.70;;;;;;;22.70;100.00;64969.97;5074502;28;20185;-61
2023/07/08 01:32:27;;;;;;;5.10;4.90;;;;;;;22.75;100.00;62982.88;5074213;28;20205;-61
2023/07/08 01:35:01;;;;;;;5.07;4.88;;;;;;;22.66;100.00;62641.22;5074280;28;20185;-61
2023/07/08 01:37:34;;;;;;;4.90;4.40;;;;;;;22.80;100.00;61992.31;5074521;28;20665;-61
2023/07/08 01:40:15;;;;;;;4.88;4.53;;;;;;;22.83;100.00;63655.66;5074187;28;20221;-62
2023/07/08 01:42:42;;;;;;;4.97;4.55;;;;;;;22.86;100.00;65984.66;5074119;28;20219;-61
2023/07/08 01:45:12;;;;;;;5.03;4.65;;;;;;;22.78;100.00;64646.66;5074144;28;20243;-62
2023/07/08 01:47:41;;;;;;;4.88;4.50;;;;;;;22.80;100.00;65645.03;5074267;28;20286;-61
2023/07/08 01:50:09;;;;;;;4.32;4.03;;;;;;;22.63;100.00;62970.44;5074267;28;20185;-61
2023/07/08 01:52:38;;;;;;;3.85;3.75;;;;;;;22.64;100.00;62971.00;5073851;28;20212;-62
2023/07/08 01:55:05;;;;;;;4.70;4.50;;;;;;;22.68;100.00;63971.34;5074144;28;20567;-60
2023/07/08 01:57:35;;;;;;;4.25;4.05;;;;;;;22.62;100.00;66289.81;5073423;28;20228;-61
2023/07/08 02:00:02;;;;;;;4.60;4.15;;;;;;;22.59;100.00;64293.53;5073187;28;20554;-60
2023/07/08 02:02:29;;;;;;;4.50;4.40;;;;;;;22.63;100.00;67952.66;5073980;28;20185;-60
2023/07/08 02:04:55;;;;;;;4.70;4.25;;;;;;;22.56;100.00;67612.75;5073963;28;20555;-62
2023/07/08 02:07:22;;;;;;;4.25;4.07;;;;;;;22.36;100.00;68253.66;5073645;28;20192;-62
2023/07/08 02:09:50;;;;;;;4.90;4.70;;;;;;;22.43;100.00;66601.03;5073950;28;20584;-61
2023/07/08 02:12:20;;;;;;;4.13;4.03;;;;;;;22.49;100.00;67936.44;5073837;28;20212;-61
2023/07/08 02:14:47;;;;;;;4.57;4.38;;;;;;;22.45;100.00;68596.50;5073503;28;20203;-61
2023/07/08 02:17:16;;;;;;;4.85;4.45;;;;;;;22.45;100.00;67931.78;5073804;28;20188;-61
2023/07/08 02:19:43;;;;;;;4.55;4.35;;;;;;;22.42;100.00;73915.16;5073840;28;20212;-61
2023/07/08 02:22:10;;;;;;;6.38;4.00;;;;;;;22.45;100.00;74251.88;5073632;28;20215;-61
2023/07/08 02:24:37;;;;;;;4.45;4.13;;;;;;;22.49;100.00;79589.16;5073294;28;20189;-61
2023/07/08 02:27:05;;;;;;;4.55;4.32;;;;;;;22.44;100.00;80582.25;5073640;28;20185;-62
2023/07/08 02:29:33;;;;;;;4.03;3.92;;;;;;;22.36;100.00;78237.56;5073595;28;20562;-62
2023/07/08 02:31:59;;;;;;;4.53;4.28;;;;;;;22.36;100.00;81239.09;5073139;28;20188;-61
2023/07/08 02:34:26;;;;;;;4.25;4.00;;;;;;;22.30;100.00;77564.44;5073036;28;20193;-61
2023/07/08 02:36:53;;;;;;;4.28;4.07;;;;;;;22.11;100.00;77539.38;5073372;28;20631;-62
2023/07/08 02:39:20;;;;;;;4.70;4.30;;;;;;;22.28;100.00;76228.69;5073352;28;20189;-61
2023/07/08 02:41:47;;;;;;;6.15;3.58;;;;;;;22.23;100.00;76222.22;5073343;28;20266;-61
2023/07/08 02:44:15;;;;;;;4.40;4.00;;;;;;;22.25;100.00;75559.47;5072929;28;20284;-61
2023/07/08 02:46:42;;;;;;;4.63;4.25;;;;;;;22.20;100.00;78884.06;5072839;28;20193;-61
2023/07/08 02:49:09;;;;;;;5.90;4.13;;;;;;;22.26;100.00;78225.56;5073297;28;20188;-60
2023/07/08 02:51:36;;;;;;;4.35;4.15;;;;;;;22.30;100.00;81897.94;5072866;28;20196;-61
2023/07/08 02:54:02;;;;;;;4.80;4.45;;;;;;;22.37;100.00;82575.03;5072828;28;20206;-60
2023/07/08 02:56:29;;;;;;;5.78;3.88;;;;;;;22.37;100.00;86916.00;5072993;28;20189;-62
2023/07/08 02:58:56;;;;;;;4.40;4.10;;;;;;;22.36;100.00;86580.44;5072836;28;20192;-61
2023/07/08 03:01:26;;;;;;;4.47;4.13;;;;;;;22.35;100.00;82237.84;5072609;28;20196;-60
2023/07/08 03:04:00;;;;;;;4.20;4.00;;;;;;;22.41;100.00;85918.84;5072715;28;20180;-61
2023/07/08 03:06:27;;;;;;;5.05;4.75;;;;;;;22.35;100.00;88249.06;5072935;28;20654;-61
2023/07/08 03:08:54;;;;;;;4.32;3.97;;;;;;;22.29;100.00;90581.91;5072792;28;20505;-61
2023/07/08 03:11:20;;;;;;;4.13;3.70;;;;;;;22.41;100.00;93945.44;5070892;28;20189;-61
2023/07/08 03:13:47;;;;;;;4.65;4.35;;;;;;;22.39;100.00;96957.78;5072717;28;20215;-62
2023/07/08 03:16:14;;;;;;;4.55;4.35;;;;;;;22.43;100.00;97298.66;5072425;28;20184;-61
2023/07/08 03:18:46;;;;;;;4.18;4.07;;;;;;;22.18;100.00;101617.31;5072501;28;20185;-61
2023/07/08 03:21:14;;;;;;;4.28;3.97;;;;;;;22.45;100.00;107707.91;5071772;28;20196;-62
2023/07/08 03:23:41;;;;;;;4.68;4.28;;;;;;;22.35;100.00;113745.16;5072200;28;20187;-61
2023/07/08 03:26:13;;;;;;;4.13;3.92;;;;;;;22.47;100.00;113769.13;5073034;28;20185;-61
2023/07/08 03:28:40;;;;;;;4.35;4.05;;;;;;;22.37;100.00;107694.25;5072384;28;20185;-61
2023/07/08 03:31:10;;;;;;;4.50;4.20;;;;;;;22.39;100.00;110388.13;5072025;28;20196;-61
2023/07/08 03:33:37;;;;;;;9.18;4.18;;;;;;;22.41;100.00;109718.13;5071880;28;20224;-61
2023/07/08 03:36:12;;;;;;;4.00;3.80;;;;;;;22.36;100.00;111054.44;5071980;28;20193;-61
2023/07/08 03:38:38;;;;;;;7.97;4.40;;;;;;;22.28;100.00;109358.72;5072258;28;20630;-62
2023/07/08 03:41:05;;;;;;;4.50;4.30;;;;;;;22.35;100.00;105337.66;5072288;28;20185;-61
2023/07/08 03:43:32;;;;;;;5.63;4.40;;;;;;;22.40;100.00;112071.50;5072842;28;20275;-61
2023/07/08 03:45:59;;;;;;;7.10;4.57;;;;;;;22.46;100.00;116125.38;5071726;28;20236;-61
2023/07/08 03:48:26;;;;;;;4.60;4.22;;;;;;;22.44;100.00;122192.41;5072417;28;20184;-61
2023/07/08 03:50:54;;;;;;;4.82;4.05;;;;;;;22.42;100.00;117802.81;5072255;28;20543;-61
2023/07/08 03:53:22;;;;;;;4.90;4.55;;;;;;;22.39;100.00;120493.81;5072332;28;20212;-61
2023/07/08 03:55:49;;;;;;;4.75;4.18;;;;;;;22.45;100.00;121856.88;5072095;28;20196;-62
2023/07/08 03:58:16;;;;;;;4.78;4.55;;;;;;;22.37;100.00;116444.72;5071163;28;20185;-62
2023/07/08 04:00:43;;;;;;;5.32;4.50;;;;;;;22.45;100.00;124895.03;5070388;28;20543;-61
2023/07/08 04:03:12;;;;;;;6.40;4.88;;;;;;;22.71;100.00;134765.66;5072327;28;20596;-62
2023/07/08 04:05:39;;;;;;;5.20;4.90;;;;;;;22.59;100.00;134059.69;5071907;28;20177;-62
2023/07/08 04:08:06;;;;;;;4.95;4.47;;;;;;;22.77;100.00;142554.50;5072021;28;20246;-61
2023/07/08 04:10:34;;;;;;;5.10;4.90;;;;;;;22.82;100.00;148601.75;5071733;28;20185;-61
2023/07/08 04:13:01;;;;;;;5.10;4.80;;;;;;;22.81;100.00;149687.97;5071451;28;20262;-61
2023/07/08 04:15:28;;;;;;;5.97;5.07;;;;;;;22.93;100.00;151615.13;5071503;28;20189;-61
2023/07/08 04:17:57;;;;;;;7.25;4.68;;;;;;;22.91;100.00;151799.00;5071439;28;20188;-61
2023/07/08 04:20:24;;;;;;;5.15;4.90;;;;;;;22.98;100.00;151815.56;5071410;28;20230;-62
2023/07/08 04:22:51;;;;;;;6.82;4.93;;;;;;;23.00;100.00;151821.91;5070441;28;20631;-61
2023/07/08 04:25:19;;;;;;;5.13;4.82;;;;;;;22.99;100.00;151819.41;5071315;28;20185;-61
2023/07/08 04:27:47;;;;;;;5.47;5.18;;;;;;;23.05;100.00;151833.41;5071123;28;20191;-61
2023/07/08 04:30:24;;;;;;;5.88;5.45;;;;;;;22.99;100.00;151819.41;5071084;28;20217;-61
2023/07/08 04:32:52;;;;;;;6.22;4.88;;;;;;;23.04;100.00;151832.13;5070952;28;20195;-61
2023/07/08 04:35:19;;;;;;;5.15;4.72;;;;;;;23.09;100.00;151843.59;5071375;28;20188;-61
2023/07/08 04:37:47;;;;;;;6.25;5.63;;;;;;;23.09;100.00;151843.59;5071491;28;20630;-62
2023/07/08 04:40:19;;;;;;;5.97;5.45;;;;;;;23.09;100.00;151843.59;5071687;28;20630;-62
2023/07/08 04:42:49;;;;;;;6.55;5.28;;;;;;;23.17;100.00;151865.28;5071151;28;20195;-60
2023/07/08 04:45:17;;;;;;;5.85;5.55;;;;;;;23.12;100.00;151851.28;5071231;28;20232;-61
2023/07/08 04:47:46;;;;;;;7.70;5.78;;;;;;;23.09;100.00;151844.88;5071191;28;20231;-62
2023/07/08 04:50:14;;;;;;;8.40;6.03;;;;;;;22.98;100.00;151815.56;5071385;28;20180;-62
2023/07/08 04:52:40;;;;;;;24.10;7.75;;;;;;;23.02;100.00;151827.03;5071495;28;20195;-61
2023/07/08 04:55:09;;;;;;;8.98;5.90;;;;;;;23.09;100.00;151844.88;5070943;28;20209;-61
2023/07/08 04:57:36;;;;;;;5.65;5.25;;;;;;;22.99;100.00;151819.41;5071344;28;20613;-60
2023/07/08 05:00:10;;;;;;;7.57;5.55;;;;;;;22.98;100.00;151815.56;5070972;28;20185;-61
2023/07/08 05:02:37;;;;;;;6.40;5.57;;;;;;;22.94;100.00;151806.63;5071179;28;20638;-61
2023/07/08 05:05:04;;;;;;;11.27;5.80;;;;;;;22.98;100.00;151816.84;5069959;28;20207;-60
2023/07/08 05:07:31;;;;;;;5.85;5.40;;;;;;;23.05;100.00;151834.69;5071200;28;20185;-62
2023/07/08 05:09:58;;;;;;;5.70;5.40;;;;;;;23.13;100.00;151853.81;5071224;28;20185;-62
2023/07/08 05:12:26;;;;;;;6.35;5.95;;;;;;;23.14;100.00;151857.66;5071163;28;20192;-60
2023/07/08 05:14:53;;;;;;;5.22;5.03;;;;;;;23.12;100.00;151851.28;5071021;28;20693;-60
2023/07/08 05:17:21;;;;;;;5.60;5.30;;;;;;;23.22;100.00;151876.78;5071109;28;20284;-62
2023/07/08 05:19:50;;;;;;;7.93;5.32;;;;;;;23.34;100.00;151907.41;5070905;28;20195;-61
2023/07/08 05:22:18;;;;;;;16.58;6.00;;;;;;;23.16;100.00;151862.78;5071197;28;20659;-61
2023/07/08 05:24:45;;;;;;;9.73;5.28;;;;;;;23.19;100.00;151870.41;5071033;28;20247;-61
2023/07/08 05:27:13;;;;;;;14.32;5.00;;;;;;;23.45;100.00;151935.56;5070988;28;20185;-61
2023/07/08 05:29:40;;;;;;;13.50;5.70;;;;;;;23.04;100.00;151832.13;5070690;28;20192;-61
2023/07/08 05:32:08;;;;;;;10.02;5.72;;;;;;;23.32;100.00;151901.03;5071058;28;20191;-61
2023/07/08 05:34:36;;;;;;;9.68;5.20;;;;;;;23.37;100.00;151913.81;5074351;28;20219;-61
2023/07/08 05:37:03;;;;;;;13.95;5.50;;;;;;;23.24;100.00;151881.91;5074342;28;20188;-61
2023/07/08 05:39:30;;;;;;;14.20;5.60;;;;;;;23.47;100.00;151939.34;5074736;28;20548;-61
2023/07/08 05:41:57;;;;;;;8.02;5.15;;;;;;;23.55;100.00;151959.81;5074628;28;20579;-61
2023/07/08 05:44:24;;;;;;;8.40;4.70;;;;;;;23.65;100.00;151986.59;5074220;28;20223;-62
2023/07/08 05:46:51;;;;;;;5.25;4.95;;;;;;;23.88;100.00;152044.03;5074062;28;20196;-61
2023/07/08 05:49:18;;;;;;;7.72;5.25;;;;;;;24.08;100.00;152093.81;5074286;28;20188;-60
2023/07/08 05:51:47;;;;;;;7.60;4.47;;;;;;;24.22;100.00;152128.34;5074004;28;20204;-60
2023/07/08 05:54:14;;;;;;;4.38;4.20;;;;;;;24.57;100.00;152217.69;5073825;28;20209;-60
2023/07/08 05:56:40;;;;;;;4.40;4.10;;;;;;;25.04;100.00;152336.53;5074342;28;20646;-61
2023/07/08 05:59:07;;;;;;;5.22;4.80;;;;;;;25.65;100.00;152491.22;5074379;28;20189;-61
2023/07/08 06:01:34;;;;;;;5.38;4.18;;;;;;;26.32;100.00;152661.25;5073860;28;20185;-62
2023/07/08 06:04:01;;;;;;;6.40;4.97;;;;;;;26.74;100.00;152767.38;5073944;28;20176;-61
2023/07/08 06:06:28;;;;;;;5.78;5.20;;;;;;;27.15;100.00;152869.78;5073968;28;20180;-62
2023/07/08 06:08:57;;;;;;;8.18;5.85;;;;;;;27.44;100.00;152942.69;5073892;28;20189;-62
2023/07/08 06:11:23;;;;;;;5.15;4.80;;;;;;;27.24;100.00;152892.81;5073687;28;20185;-62
2023/07/08 06:13:50;;;;;;;4.93;4.53;;;;;;;26.80;100.00;152782.75;5073453;28;20212;-62
2023/07/08 06:16:17;;;;;;;8.48;5.05;;;;;;;26.24;100.00;152640.81;5073748;28;20193;-62
2023/07/08 06:18:44;;;;;;;11.35;4.35;;;;;;;25.61;100.00;152480.97;5073454;28;20196;-61
2023/07/08 06:21:11;;;;;;;5.70;4.10;;;;;;;25.20;100.00;152376.16;5073353;28;20287;-61
2023/07/08 06:23:38;;;;;;;10.25;4.57;;;;;;;25.26;100.00;152392.75;5073679;28;20550;-61
2023/07/08 06:26:06;;;;;;;11.23;4.95;;;;;;;25.04;100.00;152336.53;5073457;28;20177;-61
2023/07/08 06:28:33;;;;;;;6.10;5.20;;;;;;;25.06;100.00;152340.38;5073576;28;20185;-61
2023/07/08 06:31:00;;;;;;;5.88;4.88;;;;;;;25.05;100.00;152337.81;5073206;28;20189;-62
2023/07/08 06:33:26;;;;;;;5.75;5.25;;;;;;;24.84;100.00;152286.69;5073203;28;20212;-61
2023/07/08 06:35:53;;;;;;;5.03;4.53;;;;;;;24.96;100.00;152316.09;5073356;28;20550;-62
2023/07/08 06:38:20;;;;;;;11.38;4.53;;;;;;;24.88;100.00;152296.94;5073106;28;20180;-62
2023/07/08 06:40:47;;;;;;;4.97;4.70;;;;;;;24.72;100.00;152256.03;5073471;28;20188;-61
2023/07/08 06:43:15;;;;;;;7.43;4.47;;;;;;;24.88;100.00;152296.94;5073469;28;20192;-62
2023/07/08 06:45:42;;;;;;;7.55;4.55;;;;;;;24.76;100.00;152266.25;5072201;28;20220;-61
2023/07/08 06:48:09;;;;;;;20.45;5.95;;;;;;;24.61;100.00;152227.97;5073382;28;20208;-61
2023/07/08 06:50:36;;;;;;;5.25;4.75;;;;;;;24.80;100.00;152276.47;5072794;28;20192;-61
2023/07/08 06:53:03;;;;;;;5.75;4.90;;;;;;;24.91;100.00;152303.31;5072765;28;20189;-60
2023/07/08 06:55:30;;;;;;;5.03;4.68;;;;;;;25.10;100.00;152350.59;5072863;28;20547;-61
2023/07/08 06:57:56;;;;;;;5.32;4.80;;;;;;;25.24;100.00;152386.38;5072942;28;20196;-60
2023/07/08 07:00:25;;;;;;;7.80;4.93;;;;;;;25.37;100.00;152419.63;5072569;28;20185;-61
2023/07/08 07:02:51;;;;;;;7.13;4.75;;;;;;;25.46;100.00;152442.63;5072572;28;20185;-61
2023/07/08 07:05:18;;;;;;;7.10;5.28;;;;;;;25.47;100.00;152445.13;5072588;28;20192;-61
2023/07/08 07:07:45;;;;;;;5.47;4.97;;;;;;;25.45;100.00;152440.06;5072832;28;20635;-61
2023/07/08 07:10:15;;;;;;;4.75;4.55;;;;;;;25.51;100.00;152455.34;5072623;28;20195;-62
2023/07/08 07:12:42;;;;;;;4.80;4.43;;;;;;;25.63;100.00;152484.84;5072515;28;20586;-61
2023/07/08 07:15:10;;;;;;;5.85;4.57;;;;;;;25.48;100.00;152447.72;5072349;28;20216;-62
2023/07/08 07:17:38;;;;;;;4.68;4.47;;;;;;;25.63;100.00;152484.84;5072181;28;20223;-62
2023/07/08 07:20:06;;;;;;;4.43;4.22;;;;;;;25.57;100.00;152470.75;5072535;28;20623;-62
2023/07/08 07:22:33;;;;;;;4.50;4.18;;;;;;;25.65;100.00;152491.22;5071261;28;20195;-62
2023/07/08 07:25:03;;;;;;;5.03;4.57;;;;;;;25.93;100.00;152562.75;5072554;28;20202;-61
2023/07/08 07:27:29;;;;;;;4.93;4.45;;;;;;;25.98;100.00;152572.97;5072459;28;20208;-61
2023/07/08 07:29:59;;;;;;;4.70;4.50;;;;;;;26.01;100.00;152580.69;5072465;28;20623;-60
2023/07/08 07:32:29;;;;;;;6.07;4.93;;;;;;;26.00;100.00;152578.13;5072018;28;20193;-61
2023/07/08 07:34:59;;;;;;;4.50;4.30;;;;;;;26.09;100.00;152602.44;5072146;28;20735;-63
2023/07/08 07:37:26;;;;;;;5.45;4.32;;;;;;;25.98;100.00;152574.28;5072242;28;20690;-61
2023/07/08 07:39:53;;;;;;;7.45;4.45;;;;;;;26.23;100.00;152638.22;5071874;28;20181;-62
2023/07/08 07:42:20;;;;;;;4.28;4.18;;;;;;;26.31;100.00;152658.69;5071853;28;20189;-62
2023/07/08 07:44:47;;;;;;;12.77;5.28;;;;;;;26.34;100.00;152665.09;5071909;28;20239;-62
2023/07/08 07:47:15;;;;;;;6.25;3.83;;;;;;;26.54;100.00;152714.94;5072021;28;20188;-62
2023/07/08 07:49:42;;;;;;;8.13;3.30;;;;;;;26.67;100.00;152748.22;5072329;28;20193;-62
2023/07/08 07:52:11;;;;;;;3.17;2.97;;;;;;;26.52;100.00;152711.09;5071861;28;20242;-62
2023/07/08 07:54:38;;;;;;;3.65;3.20;;;;;;;26.50;100.00;152706.00;5072021;28;20607;-61
2023/07/08 07:57:05;;;;;;;3.58;3.28;;;;;;;26.33;100.00;152662.53;5071531;28;20192;-61
2023/07/08 07:59:33;;;;;;;5.60;5.15;;;;;;;26.25;100.00;152642.09;5072028;28;20188;-61
2023/07/08 08:01:59;;;;;;;5.30;3.67;;;;;;;26.56;100.00;152721.38;5071840;28;20223;-62
2023/07/08 08:04:26;;;;;;;3.63;3.50;;;;;;;26.75;100.00;152769.94;5071780;28;20184;-62
2023/07/08 08:06:53;;;;;;;3.75;3.42;;;;;;;26.91;100.00;152808.34;5071811;28;20639;-61
2023/07/08 08:09:21;;;;;;;9.65;3.35;;;;;;;27.20;100.00;152883.81;5072045;28;20635;-60
2023/07/08 08:11:48;;;;;;;11.35;3.90;;;;;;;27.45;100.00;152945.25;5071786;28;20189;-63
2023/07/08 08:14:15;;;;;;;10.55;3.20;;;;;;;27.63;100.00;152992.63;5071796;28;20554;-62
2023/07/08 08:16:42;;;;;;;3.28;3.17;;;;;;;27.37;100.00;152926.03;5071671;28;20540;-62
2023/07/08 08:19:09;;;;;;;3.65;3.28;;;;;;;27.24;100.00;152894.03;5071768;28;20629;-62
2023/07/08 08:21:36;;;;;;;3.33;3.08;;;;;;;27.05;100.00;152845.47;5071815;28;20211;-62
2023/07/08 08:24:03;;;;;;;3.45;3.15;;;;;;;26.87;100.00;152798.13;5071676;28;20185;-62
2023/07/08 08:26:31;;;;;;;3.72;2.88;;;;;;;27.05;100.00;152845.47;5071697;28;20631;-62
2023/07/08 08:28:58;;;;;;;4.22;3.25;;;;;;;26.98;100.00;152826.28;5071466;28;20218;-62
2023/07/08 08:31:25;;;;;;;3.45;3.10;;;;;;;27.09;100.00;152855.69;5071318;28;20181;-61
2023/07/08 08:33:52;;;;;;;3.25;3.05;;;;;;;27.03;100.00;152839.09;5071384;28;20283;-62
2023/07/08 08:36:20;;;;;;;5.05;3.03;;;;;;;27.03;100.00;152839.09;5071616;28;20615;-61
2023/07/08 08:38:47;;;;;;;3.53;3.33;;;;;;;26.96;100.00;152821.16;5071799;28;20563;-62
2023/07/08 08:41:16;;;;;;;3.38;2.83;;;;;;;27.20;100.00;152882.56;5071481;28;20627;-62
2023/07/08 08:43:46;;;;;;;4.60;3.10;;;;;;;27.17;100.00;152874.88;5071556;28;20224;-61
2023/07/08 08:46:25;;;;;;;3.60;3.40;;;;;;;26.96;100.00;152821.16;5071092;28;20235;-62
2023/07/08 08:48:59;;;;;;;5.10;3.60;;;;;;;26.95;100.00;152818.56;5071542;28;20574;-63
2023/07/08 08:51:30;;;;;;;3.33;3.20;;;;;;;26.96;100.00;152821.16;5071142;28;20194;-63
2023/07/08 08:53:58;;;;;;;3.70;3.40;;;;;;;26.99;100.00;152828.84;5071119;28;20180;-62
2023/07/08 08:56:29;;;;;;;3.40;3.05;;;;;;;27.16;100.00;152873.59;5070980;28;20205;-62
2023/07/08 08:59:03;;;;;;;2.95;2.72;;;;;;;27.20;100.00;152882.56;5071615;28;20665;-62
2023/07/08 09:01:30;;;;;;;4.47;2.90;;;;;;;27.28;100.00;152903.03;5071430;28;20639;-62
2023/07/08 09:04:01;;;;;;;3.08;2.97;;;;;;;27.32;100.00;152913.28;5071699;28;20185;-62
2023/07/08 09:06:29;;;;;;;4.20;3.03;;;;;;;27.36;100.00;152922.22;5071104;28;20185;-62
2023/07/08 09:09:01;;;;;;;2.85;2.72;;;;;;;27.42;100.00;152938.84;5074086;28;20188;-63
2023/07/08 09:11:45;;;;;;;3.30;3.00;;;;;;;27.34;100.00;152918.38;5075015;28;20188;-63
2023/07/08 09:14:20;;;;;;;3.33;3.22;;;;;;;27.37;100.00;152924.78;5073804;28;20204;-61
2023/07/08 09:16:54;;;;;;;3.40;3.10;;;;;;;27.37;100.00;152926.03;5075141;28;20185;-62
2023/07/08 09:19:24;;;;;;;3.17;3.08;;;;;;;27.32;100.00;152912.00;5075038;28;20192;-63
2023/07/08 09:22:00;;;;;;;3.17;2.90;;;;;;;27.32;100.00;152913.28;5075103;28;20772;-63
2023/07/08 09:24:33;;;;;;;3.60;3.30;;;;;;;27.70;100.00;153010.56;5074409;28;20192;-62
2023/07/08 09:27:02;;;;;;;3.60;3.35;;;;;;;27.94;100.00;153069.41;5074403;28;20193;-62
2023/07/08 09:29:31;;;;;;;4.35;3.53;;;;;;;27.80;100.00;153034.84;5074525;28;20188;-63
2023/07/08 09:31:59;;;;;;;3.85;3.40;;;;;;;27.56;100.00;152974.72;5074532;28;20189;-62
2023/07/08 09:34:41;;;;;;;3.80;3.30;;;;;;;27.58;100.00;152978.56;5074294;28;20284;-62
2023/07/08 09:37:23;;;;;;;3.28;3.13;;;;;;;27.64;100.00;152993.91;5074291;28;20187;-61
2023/07/08 09:39:50;;;;;;;6.05;3.10;;;;;;;27.51;100.00;152961.91;5074643;28;20649;-62
2023/07/08 09:42:17;;;;;;;3.38;3.10;;;;;;;27.61;100.00;152986.25;5074319;28;20195;-61
2023/07/08 09:44:47;;;;;;;4.13;2.88;;;;;;;27.53;100.00;152967.06;5073983;28;20232;-62
2023/07/08 09:47:28;;;;;;;8.50;3.20;;;;;;;27.60;100.00;152984.97;5074537;28;20539;-63
2023/07/08 09:49:55;;;;;;;4.32;3.70;;;;;;;27.85;100.00;153046.38;5074580;28;20259;-63
2023/07/08 09:52:22;;;;;;;4.00;3.70;;;;;;;28.06;100.00;153100.13;5074355;28;20188;-62
2023/07/08 09:54:50;;;;;;;4.22;3.80;;;;;;;28.18;100.00;153130.88;5074301;28;20232;-62
2023/07/08 09:57:29;;;;;;;3.80;3.50;;;;;;;28.34;100.00;153171.88;5073901;28;20185;-61
2023/07/08 10:00:02;;;;;;;3.63;3.35;;;;;;;28.28;100.00;153155.22;5074054;28;20187;-62
2023/07/08 10:02:32;;;;;;;7.32;3.20;;;;;;;28.13;100.00;153118.13;5073874;28;20189;-62
2023/07/08 10:05:02;;;;;;;4.10;3.90;;;;;;;28.26;100.00;153151.41;5074030;28;20181;-62
2023/07/08 10:07:31;;;;;;;4.13;3.42;;;;;;;28.11;100.00;153114.25;5073704;28;20261;-63
2023/07/08 10:10:02;;;;;;;5.13;3.42;;;;;;;27.89;100.00;153057.88;5074128;28;20647;-63
2023/07/08 10:12:31;;;;;;;4.60;3.60;;;;;;;27.76;100.00;153023.31;5073906;28;20511;-62
2023/07/08 10:15:02;;;;;;;6.93;3.33;;;;;;;27.77;100.00;153025.91;5073618;28;20219;-61
2023/07/08 10:17:30;;;;;;;7.63;3.95;;;;;;;27.80;100.00;153034.84;5073951;28;20656;-63
2023/07/08 10:19:57;;;;;;;9.52;3.80;;;;;;;27.79;100.00;153031.03;5072639;28;20574;-63
2023/07/08 10:22:42;;;;;;;4.22;3.25;;;;;;;27.81;100.00;153036.13;5073947;28;20628;-62
2023/07/08 10:25:27;;;;;;;10.27;4.47;;;;;;;27.52;100.00;152964.50;5072821;28;20189;-63
2023/07/08 10:28:01;;;;;;;5.07;3.80;;;;;;;27.44;100.00;152943.97;5073528;28;20223;-63
2023/07/08 10:30:33;;;;;;;5.30;3.40;;;;;;;27.46;100.00;152947.78;5073358;28;20189;-62
2023/07/08 10:33:22;;;;;;;5.22;3.38;;;;;;;27.40;100.00;152932.47;5073189;28;20196;-62
2023/07/08 10:36:10;;;;;;;6.88;4.10;;;;;;;27.37;100.00;152926.03;5073253;28;20215;-62
2023/07/08 10:38:51;;;;;;;3.28;3.15;;;;;;;27.26;100.00;152899.19;5073557;28;20677;-62
2023/07/08 10:41:27;;;;;;;5.60;3.80;;;;;;;26.99;100.00;152828.84;5073280;28;20196;-62
2023/07/08 10:44:06;;;;;;;4.53;3.65;;;;;;;26.78;100.00;152777.59;5073235;28;20196;-63
2023/07/08 10:46:46;;;;;;;5.35;4.35;;;;;;;26.70;100.00;152757.16;5072889;28;20244;-62
2023/07/08 10:49:52;;;;;;;3.08;2.97;;;;;;;26.67;100.00;152749.50;5073104;28;20204;-61
2023/07/08 10:52:38;;;;;;;4.22;3.92;;;;;;;26.60;100.00;152730.31;4991579;28;20669;-62
2023/07/08 10:55:33;;;;;;;3.95;3.53;;;;;;;26.33;100.00;152662.53;5069264;28;20598;-61
2023/07/08 10:58:24;;;;;;;4.20;3.90;;;;;;;26.00;100.00;152578.13;5071075;28;20548;-62
2023/07/08 11:01:02;;;;;;;4.13;3.83;;;;;;;25.95;100.00;152565.31;5072578;28;20201;-62
2023/07/08 11:04:03;;;;;;;4.00;3.75;;;;;;;25.99;100.00;152575.56;5072843;28;20199;-61
2023/07/08 11:06:42;;;;;;;4.22;3.45;;;;;;;25.93;100.00;152562.75;5072930;28;20559;-62
2023/07/08 11:09:14;;;;;;;5.50;3.30;;;;;;;25.97;100.00;152571.69;5072656;28;20188;-62
2023/07/08 11:11:46;;;;;;;3.38;3.28;;;;;;;25.93;100.00;152562.75;5072950;28;20204;-62
2023/07/08 11:14:17;;;;;;;3.25;2.92;;;;;;;25.95;100.00;152565.31;5072429;28;20578;-62
2023/07/08 11:16:49;;;;;;;6.20;3.08;;;;;;;26.06;100.00;152594.72;5072636;28;20674;-62
2023/07/08 11:19:25;;;;;;;3.90;2.92;;;;;;;26.23;100.00;152636.94;5072467;28;20267;-62
2023/07/08 11:21:55;;;;;;;3.22;2.65;;;;;;;26.40;100.00;152679.13;5072630;28;20188;-62
2023/07/08 11:24:29;;;;;;;3.05;2.95;;;;;;;26.45;100.00;152691.94;5072498;28;20650;-61
2023/07/08 11:27:00;;;;;;;3.97;3.20;;;;;;;26.34;100.00;152665.09;5072285;28;20268;-61
2023/07/08 11:29:35;;;;;;;5.18;3.60;;;;;;;26.22;100.00;152634.44;5072580;28;20189;-61
2023/07/08 11:32:05;;;;;;;3.40;3.30;;;;;;;26.23;100.00;152636.94;5071883;28;20180;-62